sensor_id;sensor_type;location;lat;lon;timestamp;pressure;altitude;pressure_sealevel;temperature;humidity
11525;BME280;5819;49.648;8.330;2022-10-23T00:02:10;100346.72;;;12.30;100.00
11525;BME280;5819;49.648;8.330;2022-10-23T00:04:39;100345.03;;;12.29;100.00
11525;BME280;5819;49.648;8.330;2022-10-23T00:07:07;100340.88;;;12.25;100.00
11525;BME280;5819;49.648;8.330;2022-10-23T00:09:34;100341.25;;;12.17;100.00
11525;BME280;5819;49.648;8.330;2022-10-23T00:12:02;100333.28;;;12.20;100.00
11525;BME280;5819;49.648;8.330;2022-10-23T00:14:30;100319.31;;;12.22;100.00
11525;BME280;5819;49.648;8.330;2022-10-23T00:16:58;100315.00;;;12.20;100.00
11525;BME280;5819;49.648;8.330;2022-10-23T00:19:26;100317.25;;;12.11;100.00
11525;BME280;5819;49.648;8.330;2022-10-23T00:21:55;100327.06;;;12.06;100.00
11525;BME280;5819;49.648;8.330;2022-10-23T00:24:22;100322.84;;;12.03;100.00
11525;BME280;5819;49.648;8.330;2022-10-23T00:26:50;100306.13;;;12.07;100.00
11525;BME280;5819;49.648;8.330;2022-10-23T00:29:18;100299.28;;;12.05;100.00
11525;BME280;5819;49.648;8.330;2022-10-23T00:31:46;100308.13;;;12.02;100.00
11525;BME280;5819;49.648;8.330;2022-10-23T00:34:16;100300.91;;;12.07;100.00
11525;BME280;5819;49.648;8.330;2022-10-23T00:36:44;100294.06;;;12.05;100.00
11525;BME280;5819;49.648;8.330;2022-10-23T00:39:14;100307.19;;;12.03;100.00
11525;BME280;5819;49.648;8.330;2022-10-23T00:41:41;100308.97;;;12.03;100.00
11525;BME280;5819;49.648;8.330;2022-10-23T00:47:15;100289.78;;;12.04;100.00
11525;BME280;5819;49.648;8.330;2022-10-23T00:49:43;100293.31;;;12.03;100.00
11525;BME280;5819;49.648;8.330;2022-10-23T00:52:11;100296.00;;;12.01;100.00
11525;BME280;5819;49.648;8.330;2022-10-23T00:54:42;100299.72;;;11.96;100.00
11525;BME280;5819;49.648;8.330;2022-10-23T00:57:12;100299.97;;;11.91;100.00
11525;BME280;5819;49.648;8.330;2022-10-23T00:59:41;100293.59;;;11.97;100.00
11525;BME280;5819;49.648;8.330;2022-10-23T01:02:09;100277.22;;;11.95;100.00
11525;BME280;5819;49.648;8.330;2022-10-23T01:04:37;100271.78;;;11.99;100.00
11525;BME280;5819;49.648;8.330;2022-10-23T01:07:08;100276.44;;;11.93;100.00
11525;BME280;5819;49.648;8.330;2022-10-23T01:09:44;100276.19;;;11.97;100.00
11525;BME280;5819;49.648;8.330;2022-10-23T01:12:18;100271.78;;;11.99;100.00
11525;BME280;5819;49.648;8.330;2022-10-23T01:14:56;100279.50;;;12.01;100.00
11525;BME280;5819;49.648;8.330;2022-10-23T01:17:30;100281.94;;;12.04;100.00
11525;BME280;5819;49.648;8.330;2022-10-23T01:20:19;100282.78;;;12.04;100.00
11525;BME280;5819;49.648;8.330;2022-10-23T01:23:13;100283.81;;;12.02;100.00
11525;BME280;5819;49.648;8.330;2022-10-23T01:25:55;100284.56;;;12.04;100.00
11525;BME280;5819;49.648;8.330;2022-10-23T01:28:29;100276.16;;;11.99;100.00
11525;BME280;5819;49.648;8.330;2022-10-23T01:30:58;100276.91;;;12.01;100.00
11525;BME280;5819;49.648;8.330;2022-10-23T01:33:38;100275.44;;;11.95;100.00
11525;BME280;5819;49.648;8.330;2022-10-23T01:36:11;100277.06;;;11.98;100.00
11525;BME280;5819;49.648;8.330;2022-10-23T01:38:43;100277.81;;;12.00;100.00
11525;BME280;5819;49.648;8.330;2022-10-23T01:41:27;100277.00;;;11.99;100.00
11525;BME280;5819;49.648;8.330;2022-10-23T01:44:02;100287.31;;;12.01;100.00
11525;BME280;5819;49.648;8.330;2022-10-23T01:46:33;100279.66;;;11.98;100.00
11525;BME280;5819;49.648;8.330;2022-10-23T01:49:08;100270.78;;;12.02;100.00
11525;BME280;5819;49.648;8.330;2022-10-23T01:51:40;100271.00;;;11.97;100.00
11525;BME280;5819;49.648;8.330;2022-10-23T01:54:12;100263.56;;;11.90;100.00
11525;BME280;5819;49.648;8.330;2022-10-23T01:56:44;100254.13;;;11.87;100.00
11525;BME280;5819;49.648;8.330;2022-10-23T01:59:17;100233.72;;;11.78;100.00
11525;BME280;5819;49.648;8.330;2022-10-23T02:01:48;100220.16;;;11.89;100.00
11525;BME280;5819;49.648;8.330;2022-10-23T02:04:23;100233.19;;;11.89;100.00
11525;BME280;5819;49.648;8.330;2022-10-23T02:06:52;100238.84;;;11.80;100.00
11525;BME280;5819;49.648;8.330;2022-10-23T02:09:19;100238.94;;;11.78;100.00
11525;BME280;5819;49.648;8.330;2022-10-23T02:11:52;100226.66;;;11.80;100.00
11525;BME280;5819;49.648;8.330;2022-10-23T02:14:31;100234.78;;;11.74;100.00
11525;BME280;5819;49.648;8.330;2022-10-23T02:17:07;100239.00;;;11.77;100.00
11525;BME280;5819;49.648;8.330;2022-10-23T02:19:41;100236.56;;;11.73;100.00
11525;BME280;5819;49.648;8.330;2022-10-23T02:22:13;100228.88;;;11.70;100.00
11525;BME280;5819;49.648;8.330;2022-10-23T02:24:47;100226.38;;;11.67;100.00
11525;BME280;5819;49.648;8.330;2022-10-23T02:27:19;100225.78;;;11.62;100.00
11525;BME280;5819;49.648;8.330;2022-10-23T02:29:56;100223.09;;;11.64;100.00
11525;BME280;5819;49.648;8.330;2022-10-23T02:32:29;100221.56;;;11.60;100.00
11525;BME280;5819;49.648;8.330;2022-10-23T02:34:57;100232.69;;;11.63;100.00
11525;BME280;5819;49.648;8.330;2022-10-23T02:37:26;100225.00;;;11.60;100.00
11525;BME280;5819;49.648;8.330;2022-10-23T02:39:54;100218.41;;;11.53;100.00
11525;BME280;5819;49.648;8.330;2022-10-23T02:42:25;100221.00;;;11.53;100.00
11525;BME280;5819;49.648;8.330;2022-10-23T02:45:02;100218.72;;;11.47;100.00
11525;BME280;5819;49.648;8.330;2022-10-23T02:47:41;100214.19;;;11.51;100.00
11525;BME280;5819;49.648;8.330;2022-10-23T02:50:21;100211.44;;;11.54;100.00
11525;BME280;5819;49.648;8.330;2022-10-23T02:52:57;100212.19;;;11.56;100.00
11525;BME280;5819;49.648;8.330;2022-10-23T02:55:36;100201.78;;;11.56;100.00
11525;BME280;5819;49.648;8.330;2022-10-23T02:58:09;100201.88;;;11.54;100.00
11525;BME280;5819;49.648;8.330;2022-10-23T03:00:47;100198.56;;;11.51;100.00
11525;BME280;5819;49.648;8.330;2022-10-23T03:03:21;100209.84;;;11.51;100.00
11525;BME280;5819;49.648;8.330;2022-10-23T03:05:51;100199.88;;;11.59;100.00
11525;BME280;5819;49.648;8.330;2022-10-23T03:08:18;100192.81;;;11.61;100.00
11525;BME280;5819;49.648;8.330;2022-10-23T03:10:46;100188.47;;;11.62;100.00
11525;BME280;5819;49.648;8.330;2022-10-23T03:13:20;100188.69;;;11.57;100.00
11525;BME280;5819;49.648;8.330;2022-10-23T03:15:50;100187.84;;;11.57;100.00
11525;BME280;5819;49.648;8.330;2022-10-23T03:18:17;100169.69;;;11.55;100.00
11525;BME280;5819;49.648;8.330;2022-10-23T03:20:48;100159.72;;;11.46;100.00
11525;BME280;5819;49.648;8.330;2022-10-23T03:23:19;100158.09;;;11.44;100.00
11525;BME280;5819;49.648;8.330;2022-10-23T03:25:47;100169.28;;;11.46;100.00
11525;BME280;5819;49.648;8.330;2022-10-23T03:28:29;100170.81;;;11.50;100.00
11525;BME280;5819;49.648;8.330;2022-10-23T03:30:59;100161.25;;;11.50;100.00
11525;BME280;5819;49.648;8.330;2022-10-23T03:33:28;100154.41;;;11.48;100.00
11525;BME280;5819;49.648;8.330;2022-10-23T03:36:04;100164.09;;;11.46;100.00
11525;BME280;5819;49.648;8.330;2022-10-23T03:38:33;100153.44;;;11.50;100.00
11525;BME280;5819;49.648;8.330;2022-10-23T03:41:02;100160.47;;;11.48;100.00
11525;BME280;5819;49.648;8.330;2022-10-23T03:43:30;100164.03;;;11.47;100.00
11525;BME280;5819;49.648;8.330;2022-10-23T03:45:59;100170.03;;;11.48;100.00
11525;BME280;5819;49.648;8.330;2022-10-23T03:48:27;100161.47;;;11.46;100.00
11525;BME280;5819;49.648;8.330;2022-10-23T03:50:57;100170.31;;;11.43;100.00
11525;BME280;5819;49.648;8.330;2022-10-23T03:53:25;100164.31;;;11.41;100.00
11525;BME280;5819;49.648;8.330;2022-10-23T03:55:52;100168.59;;;11.42;100.00
11525;BME280;5819;49.648;8.330;2022-10-23T03:58:20;100167.91;;;11.39;100.00
11525;BME280;5819;49.648;8.330;2022-10-23T04:00:49;100170.56;;;11.37;100.00
11525;BME280;5819;49.648;8.330;2022-10-23T04:03:18;100179.25;;;11.38;100.00
11525;BME280;5819;49.648;8.330;2022-10-23T04:05:45;100189.03;;;11.33;100.00
11525;BME280;5819;49.648;8.330;2022-10-23T04:08:20;100194.44;;;11.28;100.00
11525;BME280;5819;49.648;8.330;2022-10-23T04:10:50;100203.47;;;11.21;100.00
11525;BME280;5819;49.648;8.330;2022-10-23T04:13:23;100200.03;;;11.20;100.00
11525;BME280;5819;49.648;8.330;2022-10-23T04:15:52;100198.56;;;11.15;100.00
11525;BME280;5819;49.648;8.330;2022-10-23T04:18:23;100193.28;;;11.16;100.00
11525;BME280;5819;49.648;8.330;2022-10-23T04:20:51;100183.06;;;11.12;100.00
11525;BME280;5819;49.648;8.330;2022-10-23T04:23:20;100181.41;;;11.11;100.00
11525;BME280;5819;49.648;8.330;2022-10-23T04:25:47;100187.38;;;11.13;100.00
11525;BME280;5819;49.648;8.330;2022-10-23T04:28:15;100194.19;;;11.15;100.00
11525;BME280;5819;49.648;8.330;2022-10-23T04:30:44;100195.66;;;11.21;100.00
11525;BME280;5819;49.648;8.330;2022-10-23T04:33:12;100181.75;;;11.22;100.00
11525;BME280;5819;49.648;8.330;2022-10-23T04:35:41;100188.66;;;11.23;100.00
11525;BME280;5819;49.648;8.330;2022-10-23T04:38:10;100187.84;;;11.21;100.00
11525;BME280;5819;49.648;8.330;2022-10-23T04:40:37;100174.09;;;11.19;100.00
11525;BME280;5819;49.648;8.330;2022-10-23T04:43:05;100180.19;;;11.18;100.00
11525;BME280;5819;49.648;8.330;2022-10-23T04:45:36;100173.94;;;11.22;100.00
11525;BME280;5819;49.648;8.330;2022-10-23T04:48:04;100166.50;;;11.14;100.00
11525;BME280;5819;49.648;8.330;2022-10-23T04:50:57;100165.69;;;11.12;100.00
11525;BME280;5819;49.648;8.330;2022-10-23T04:53:45;100153.75;;;11.08;100.00
11525;BME280;5819;49.648;8.330;2022-10-23T04:56:24;100152.78;;;11.11;100.00
11525;BME280;5819;49.648;8.330;2022-10-23T04:59:01;100158.69;;;11.14;100.00
11525;BME280;5819;49.648;8.330;2022-10-23T05:01:30;100162.34;;;11.10;100.00
11525;BME280;5819;49.648;8.330;2022-10-23T05:04:00;100168.94;;;11.17;100.00
11525;BME280;5819;49.648;8.330;2022-10-23T05:06:29;100169.63;;;11.21;100.00
11525;BME280;5819;49.648;8.330;2022-10-23T05:09:19;100160.22;;;11.18;100.00
11525;BME280;5819;49.648;8.330;2022-10-23T05:11:58;100174.09;;;11.19;100.00
11525;BME280;5819;49.648;8.330;2022-10-23T05:14:26;100180.75;;;11.24;100.00
11525;BME280;5819;49.648;8.330;2022-10-23T05:16:58;100168.50;;;11.26;100.00
11525;BME280;5819;49.648;8.330;2022-10-23T05:19:31;100162.88;;;11.17;100.00
11525;BME280;5819;49.648;8.330;2022-10-23T05:22:04;100161.50;;;11.10;100.00
11525;BME280;5819;49.648;8.330;2022-10-23T05:24:45;100165.16;;;11.06;100.00
11525;BME280;5819;49.648;8.330;2022-10-23T05:27:19;100157.50;;;11.03;100.00
11525;BME280;5819;49.648;8.330;2022-10-23T05:29:49;100156.66;;;11.02;100.00
11525;BME280;5819;49.648;8.330;2022-10-23T05:32:20;100145.59;;;10.97;100.00
11525;BME280;5819;49.648;8.330;2022-10-23T05:34:49;100139.00;;;10.90;100.00
11525;BME280;5819;49.648;8.330;2022-10-23T05:37:18;100143.06;;;10.96;100.00
11525;BME280;5819;49.648;8.330;2022-10-23T05:39:46;100143.00;;;10.97;100.00
11525;BME280;5819;49.648;8.330;2022-10-23T05:42:15;100135.56;;;10.90;100.00
11525;BME280;5819;49.648;8.330;2022-10-23T05:44:44;100134.28;;;10.98;100.00
11525;BME280;5819;49.648;8.330;2022-10-23T05:47:31;100135.13;;;10.99;100.00
11525;BME280;5819;49.648;8.330;2022-10-23T05:50:26;100137.50;;;11.03;100.00
11525;BME280;5819;49.648;8.330;2022-10-23T05:53:14;100128.09;;;11.01;100.00
11525;BME280;5819;49.648;8.330;2022-10-23T05:55:53;100128.03;;;11.02;100.00
11525;BME280;5819;49.648;8.330;2022-10-23T05:58:38;100142.84;;;11.00;100.00
11525;BME280;5819;49.648;8.330;2022-10-23T06:01:25;100140.25;;;11.00;100.00
11525;BME280;5819;49.648;8.330;2022-10-23T06:04:00;100132.75;;;10.94;100.00
11525;BME280;5819;49.648;8.330;2022-10-23T06:06:45;100132.13;;;10.89;100.00
11525;BME280;5819;49.648;8.330;2022-10-23T06:09:15;100133.25;;;10.84;100.00
11525;BME280;5819;49.648;8.330;2022-10-23T06:11:44;100134.94;;;10.85;100.00
11525;BME280;5819;49.648;8.330;2022-10-23T06:14:17;100118.41;;;10.86;100.00
11525;BME280;5819;49.648;8.330;2022-10-23T06:16:44;100115.75;;;10.87;100.00
11525;BME280;5819;49.648;8.330;2022-10-23T06:19:13;100108.69;;;10.89;100.00
11525;BME280;5819;49.648;8.330;2022-10-23T06:21:42;100096.38;;;10.93;100.00
11525;BME280;5819;49.648;8.330;2022-10-23T06:24:14;100095.69;;;10.89;100.00
11525;BME280;5819;49.648;8.330;2022-10-23T06:26:53;100097.28;;;10.92;100.00
11525;BME280;5819;49.648;8.330;2022-10-23T06:29:43;100104.97;;;10.95;100.00
11525;BME280;5819;49.648;8.330;2022-10-23T06:32:11;100098.75;;;10.97;100.00
11525;BME280;5819;49.648;8.330;2022-10-23T06:34:44;100098.50;;;10.85;100.00
11525;BME280;5819;49.648;8.330;2022-10-23T06:37:12;100104.56;;;10.85;100.00
11525;BME280;5819;49.648;8.330;2022-10-23T06:39:46;100108.84;;;10.86;100.00
11525;BME280;5819;49.648;8.330;2022-10-23T06:42:17;100105.34;;;10.87;100.00
11525;BME280;5819;49.648;8.330;2022-10-23T06:44:54;100105.19;;;10.90;100.00
11525;BME280;5819;49.648;8.330;2022-10-23T06:47:45;100109.19;;;10.97;100.00
11525;BME280;5819;49.648;8.330;2022-10-23T06:50:31;100108.25;;;10.98;100.00
11525;BME280;5819;49.648;8.330;2022-10-23T06:53:04;100115.22;;;10.98;100.00
11525;BME280;5819;49.648;8.330;2022-10-23T06:55:36;100117.69;;;11.01;100.00
11525;BME280;5819;49.648;8.330;2022-10-23T06:58:06;100109.25;;;10.96;100.00
11525;BME280;5819;49.648;8.330;2022-10-23T07:00:51;100117.63;;;11.02;100.00
11525;BME280;5819;49.648;8.330;2022-10-23T07:03:18;100114.91;;;11.04;100.00
11525;BME280;5819;49.648;8.330;2022-10-23T07:05:46;100114.47;;;11.13;100.00
11525;BME280;5819;49.648;8.330;2022-10-23T07:08:15;100112.72;;;11.13;100.00
11525;BME280;5819;49.648;8.330;2022-10-23T07:10:47;100121.06;;;11.20;100.00
11525;BME280;5819;49.648;8.330;2022-10-23T07:13:17;100116.28;;;11.30;100.00
11525;BME280;5819;49.648;8.330;2022-10-23T07:16:09;100107.56;;;11.31;100.00
11525;BME280;5819;49.648;8.330;2022-10-23T07:18:37;100116.06;;;11.34;100.00
11525;BME280;5819;49.648;8.330;2022-10-23T07:21:41;100122.84;;;11.37;100.00
11525;BME280;5819;49.648;8.330;2022-10-23T07:24:32;100125.06;;;11.44;100.00
11525;BME280;5819;49.648;8.330;2022-10-23T07:27:08;100122.09;;;11.52;100.00
11525;BME280;5819;49.648;8.330;2022-10-23T07:29:36;100120.94;;;11.57;100.00
11525;BME280;5819;49.648;8.330;2022-10-23T07:32:05;100123.03;;;11.51;100.00
11525;BME280;5819;49.648;8.330;2022-10-23T07:34:58;100117.34;;;11.60;100.00
11525;BME280;5819;49.648;8.330;2022-10-23T07:37:31;100120.66;;;11.63;100.00
11525;BME280;5819;49.648;8.330;2022-10-23T07:40:01;100116.38;;;11.62;100.00
11525;BME280;5819;49.648;8.330;2022-10-23T07:42:34;100119.34;;;11.72;100.00
11525;BME280;5819;49.648;8.330;2022-10-23T07:45:03;100117.53;;;11.74;100.00
11525;BME280;5819;49.648;8.330;2022-10-23T07:47:32;100113.06;;;11.76;100.00
11525;BME280;5819;49.648;8.330;2022-10-23T07:50:00;100109.38;;;11.80;100.00
11525;BME280;5819;49.648;8.330;2022-10-23T07:52:28;100116.56;;;11.92;100.00
11525;BME280;5819;49.648;8.330;2022-10-23T07:55:08;100118.03;;;11.98;100.00
11525;BME280;5819;49.648;8.330;2022-10-23T07:57:43;100134.75;;;11.94;100.00
11525;BME280;5819;49.648;8.330;2022-10-23T08:00:26;100132.09;;;11.95;100.00
11525;BME280;5819;49.648;8.330;2022-10-23T08:03:04;100120.31;;;12.04;100.00
11525;BME280;5819;49.648;8.330;2022-10-23T08:05:32;100115.47;;;12.13;100.00
11525;BME280;5819;49.648;8.330;2022-10-23T08:08:02;100098.75;;;12.17;100.00
11525;BME280;5819;49.648;8.330;2022-10-23T08:10:30;100101.09;;;12.22;100.00
11525;BME280;5819;49.648;8.330;2022-10-23T08:13:00;100092.59;;;12.18;100.00
11525;BME280;5819;49.648;8.330;2022-10-23T08:15:50;100091.97;;;12.31;100.00
11525;BME280;5819;49.648;8.330;2022-10-23T08:18:38;100092.94;;;12.44;100.00
11525;BME280;5819;49.648;8.330;2022-10-23T08:21:06;100095.56;;;12.44;100.00
11525;BME280;5819;49.648;8.330;2022-10-23T08:23:34;100094.47;;;12.48;100.00
11525;BME280;5819;49.648;8.330;2022-10-23T08:26:04;100091.63;;;12.52;100.00
11525;BME280;5819;49.648;8.330;2022-10-23T08:28:35;100077.75;;;12.68;100.00
11525;BME280;5819;49.648;8.330;2022-10-23T08:33:59;100104.94;;;12.79;100.00
11525;BME280;5819;49.648;8.330;2022-10-23T08:36:27;100114.84;;;12.88;100.00
11525;BME280;5819;49.648;8.330;2022-10-23T08:38:56;100112.09;;;12.91;100.00
11525;BME280;5819;49.648;8.330;2022-10-23T08:41:28;100119.16;;;12.89;100.00
11525;BME280;5819;49.648;8.330;2022-10-23T08:44:17;100117.72;;;12.99;100.00
11525;BME280;5819;49.648;8.330;2022-10-23T08:46:49;100111.13;;;13.08;100.00
11525;BME280;5819;49.648;8.330;2022-10-23T08:49:46;100120.75;;;13.23;100.00
11525;BME280;5819;49.648;8.330;2022-10-23T08:52:21;100113.53;;;13.42;100.00
11525;BME280;5819;49.648;8.330;2022-10-23T08:54:56;100114.78;;;13.51;100.00
11525;BME280;5819;49.648;8.330;2022-10-23T08:57:28;100131.59;;;13.61;100.00
11525;BME280;5819;49.648;8.330;2022-10-23T09:00:12;100118.72;;;13.72;100.00
11525;BME280;5819;49.648;8.330;2022-10-23T09:02:42;100117.47;;;13.93;100.00
11525;BME280;5819;49.648;8.330;2022-10-23T09:05:15;100111.59;;;13.90;100.00
11525;BME280;5819;49.648;8.330;2022-10-23T09:07:55;100127.47;;;13.87;100.00
11525;BME280;5819;49.648;8.330;2022-10-23T09:10:35;100113.38;;;14.18;100.00
11525;BME280;5819;49.648;8.330;2022-10-23T09:13:20;100114.00;;;14.21;100.00
11525;BME280;5819;49.648;8.330;2022-10-23T09:15:58;100111.97;;;14.26;100.00
11525;BME280;5819;49.648;8.330;2022-10-23T09:18:30;100104.56;;;14.33;100.00
11525;BME280;5819;49.648;8.330;2022-10-23T09:20:57;100105.41;;;14.33;100.00
11525;BME280;5819;49.648;8.330;2022-10-23T09:23:25;100103.34;;;14.24;100.00
11525;BME280;5819;49.648;8.330;2022-10-23T09:25:53;100095.88;;;14.32;100.00
11525;BME280;5819;49.648;8.330;2022-10-23T09:28:25;100103.66;;;14.34;100.00
11525;BME280;5819;49.648;8.330;2022-10-23T09:31:04;100102.44;;;14.25;100.00
11525;BME280;5819;49.648;8.330;2022-10-23T09:33:32;100095.16;;;14.30;100.00
11525;BME280;5819;49.648;8.330;2022-10-23T09:36:05;100098.25;;;14.37;100.00
11525;BME280;5819;49.648;8.330;2022-10-23T09:38:36;100101.03;;;14.34;100.00
11525;BME280;5819;49.648;8.330;2022-10-23T09:41:12;100096.19;;;14.42;100.00
11525;BME280;5819;49.648;8.330;2022-10-23T09:43:40;100106.94;;;14.37;100.00
11525;BME280;5819;49.648;8.330;2022-10-23T09:46:10;100107.69;;;14.39;100.00
11525;BME280;5819;49.648;8.330;2022-10-23T09:48:39;100102.19;;;14.44;100.00
11525;BME280;5819;49.648;8.330;2022-10-23T09:51:15;100096.94;;;14.44;100.00
11525;BME280;5819;49.648;8.330;2022-10-23T09:53:48;100101.16;;;14.46;100.00
11525;BME280;5819;49.648;8.330;2022-10-23T09:56:25;100097.13;;;14.41;100.00
11525;BME280;5819;49.648;8.330;2022-10-23T09:58:56;100090.66;;;14.46;100.00
11525;BME280;5819;49.648;8.330;2022-10-23T10:01:27;100082.75;;;14.48;100.00
11525;BME280;5819;49.648;8.330;2022-10-23T10:04:10;100081.06;;;14.47;100.00
11525;BME280;5819;49.648;8.330;2022-10-23T10:06:38;100079.91;;;14.51;100.00
11525;BME280;5819;49.648;8.330;2022-10-23T10:09:11;100075.47;;;14.66;100.00
11525;BME280;5819;49.648;8.330;2022-10-23T10:11:43;100072.22;;;14.89;100.00
11525;BME280;5819;49.648;8.330;2022-10-23T10:14:34;100074.13;;;14.87;100.00
11525;BME280;5819;49.648;8.330;2022-10-23T10:17:18;100080.09;;;14.89;100.00
11525;BME280;5819;49.648;8.330;2022-10-23T10:20:00;100075.47;;;14.80;100.00
11525;BME280;5819;49.648;8.330;2022-10-23T10:22:38;100077.44;;;14.76;100.00
11525;BME280;5819;49.648;8.330;2022-10-23T10:25:15;100083.97;;;14.69;100.00
11525;BME280;5819;49.648;8.330;2022-10-23T10:27:54;100087.56;;;14.68;100.00
11525;BME280;5819;49.648;8.330;2022-10-23T10:30:24;100074.50;;;14.81;100.00
11525;BME280;5819;49.648;8.330;2022-10-23T10:33:27;100079.59;;;14.96;100.00
11525;BME280;5819;49.648;8.330;2022-10-23T10:36:02;100072.47;;;14.98;100.00
11525;BME280;5819;49.648;8.330;2022-10-23T10:38:43;100062.63;;;15.02;100.00
11525;BME280;5819;49.648;8.330;2022-10-23T10:41:22;100059.94;;;15.04;100.00
11525;BME280;5819;49.648;8.330;2022-10-23T10:43:59;100041.91;;;14.99;100.00
11525;BME280;5819;49.648;8.330;2022-10-23T10:46:34;100047.84;;;15.01;100.00
11525;BME280;5819;49.648;8.330;2022-10-23T10:49:09;100044.44;;;15.13;100.00
11525;BME280;5819;49.648;8.330;2022-10-23T10:52:16;100040.16;;;15.12;100.00
11525;BME280;5819;49.648;8.330;2022-10-23T10:54:54;100037.31;;;15.15;100.00
11525;BME280;5819;49.648;8.330;2022-10-23T10:57:30;100027.56;;;15.17;100.00
11525;BME280;5819;49.648;8.330;2022-10-23T11:00:02;100012.81;;;15.29;100.00
11525;BME280;5819;49.648;8.330;2022-10-23T11:02:33;100025.19;;;15.39;100.00
11525;BME280;5819;49.648;8.330;2022-10-23T11:05:14;100026.91;;;15.40;100.00
11525;BME280;5819;49.648;8.330;2022-10-23T11:07:52;100026.06;;;15.40;100.00
11525;BME280;5819;49.648;8.330;2022-10-23T11:10:21;100025.03;;;15.55;100.00
11525;BME280;5819;49.648;8.330;2022-10-23T11:12:50;100037.53;;;15.64;100.00
11525;BME280;5819;49.648;8.330;2022-10-23T11:15:22;100034.78;;;15.78;100.00
11525;BME280;5819;49.648;8.330;2022-10-23T11:17:55;100030.91;;;15.97;100.00
11525;BME280;5819;49.648;8.330;2022-10-23T11:20:42;100019.56;;;16.09;100.00
11525;BME280;5819;49.648;8.330;2022-10-23T11:23:41;100012.75;;;16.30;100.00
11525;BME280;5819;49.648;8.330;2022-10-23T11:26:22;100014.28;;;16.45;100.00
11525;BME280;5819;49.648;8.330;2022-10-23T11:29:08;100005.81;;;16.65;100.00
11525;BME280;5819;49.648;8.330;2022-10-23T11:31:45;99985.88;;;16.87;100.00
11525;BME280;5819;49.648;8.330;2022-10-23T11:34:49;99983.44;;;17.07;100.00
11525;BME280;5819;49.648;8.330;2022-10-23T11:37:22;99992.44;;;17.16;100.00
11525;BME280;5819;49.648;8.330;2022-10-23T11:40:20;99989.63;;;17.52;100.00
11525;BME280;5819;49.648;8.330;2022-10-23T11:42:49;99997.19;;;17.57;100.00
11525;BME280;5819;49.648;8.330;2022-10-23T11:45:30;99995.88;;;17.73;100.00
11525;BME280;5819;49.648;8.330;2022-10-23T11:48:00;99997.22;;;18.01;100.00
11525;BME280;5819;49.648;8.330;2022-10-23T11:50:31;99982.25;;;18.02;100.00
11525;BME280;5819;49.648;8.330;2022-10-23T11:53:04;99983.44;;;17.87;100.00
11525;BME280;5819;49.648;8.330;2022-10-23T11:55:56;99981.44;;;18.01;100.00
11525;BME280;5819;49.648;8.330;2022-10-23T11:58:25;99979.63;;;18.13;100.00
11525;BME280;5819;49.648;8.330;2022-10-23T12:01:01;99960.66;;;18.30;100.00
11525;BME280;5819;49.648;8.330;2022-10-23T12:03:40;99935.59;;;18.79;100.00
11525;BME280;5819;49.648;8.330;2022-10-23T12:06:19;99925.00;;;19.10;99.50
11525;BME280;5819;49.648;8.330;2022-10-23T12:08:52;99920.25;;;19.25;95.47
11525;BME280;5819;49.648;8.330;2022-10-23T12:11:39;99917.06;;;19.31;95.82
11525;BME280;5819;49.648;8.330;2022-10-23T12:14:25;99931.81;;;19.13;98.72
11525;BME280;5819;49.648;8.330;2022-10-23T12:16:54;99913.28;;;19.24;98.28
11525;BME280;5819;49.648;8.330;2022-10-23T12:19:24;99919.31;;;19.36;96.90
11525;BME280;5819;49.648;8.330;2022-10-23T12:21:54;99923.84;;;19.24;95.01
11525;BME280;5819;49.648;8.330;2022-10-23T12:24:34;99922.22;;;19.33;100.00
11525;BME280;5819;49.648;8.330;2022-10-23T12:27:15;99918.66;;;18.92;97.53
11525;BME280;5819;49.648;8.330;2022-10-23T12:32:48;99914.50;;;18.15;100.00
11525;BME280;5819;49.648;8.330;2022-10-23T12:35:42;99903.22;;;18.24;100.00
11525;BME280;5819;49.648;8.330;2022-10-23T12:38:16;99895.88;;;18.39;100.00
11525;BME280;5819;49.648;8.330;2022-10-23T12:40:50;99869.34;;;18.51;100.00
11525;BME280;5819;49.648;8.330;2022-10-23T12:43:24;99857.19;;;18.71;100.00
11525;BME280;5819;49.648;8.330;2022-10-23T12:45:54;99866.13;;;18.80;96.40
11525;BME280;5819;49.648;8.330;2022-10-23T12:48:23;99868.28;;;18.95;100.00
11525;BME280;5819;49.648;8.330;2022-10-23T12:50:53;99878.53;;;18.89;100.00
11525;BME280;5819;49.648;8.330;2022-10-23T12:53:22;99890.88;;;18.67;100.00
11525;BME280;5819;49.648;8.330;2022-10-23T12:55:55;99886.50;;;18.57;100.00
11525;BME280;5819;49.648;8.330;2022-10-23T12:58:25;99872.94;;;18.50;100.00
11525;BME280;5819;49.648;8.330;2022-10-23T13:01:00;99863.25;;;18.51;100.00
11525;BME280;5819;49.648;8.330;2022-10-23T13:03:29;99866.38;;;18.56;100.00
11525;BME280;5819;49.648;8.330;2022-10-23T13:05:59;99864.84;;;18.53;100.00
11525;BME280;5819;49.648;8.330;2022-10-23T13:08:31;99861.41;;;18.62;100.00
11525;BME280;5819;49.648;8.330;2022-10-23T13:11:27;99853.91;;;18.79;100.00
11525;BME280;5819;49.648;8.330;2022-10-23T13:13:58;99849.59;;;18.78;99.04
11525;BME280;5819;49.648;8.330;2022-10-23T13:16:27;99848.59;;;18.69;98.77
11525;BME280;5819;49.648;8.330;2022-10-23T13:18:54;99853.47;;;18.74;99.90
11525;BME280;5819;49.648;8.330;2022-10-23T13:21:24;99839.38;;;18.84;100.00
11525;BME280;5819;49.648;8.330;2022-10-23T13:23:54;99834.16;;;18.94;100.00
11525;BME280;5819;49.648;8.330;2022-10-23T13:26:29;99822.81;;;19.03;99.56
11525;BME280;5819;49.648;8.330;2022-10-23T13:28:58;99818.59;;;18.91;98.90
11525;BME280;5819;49.648;8.330;2022-10-23T13:31:29;99809.81;;;18.81;100.00
11525;BME280;5819;49.648;8.330;2022-10-23T13:34:13;99805.25;;;18.83;97.45
11525;BME280;5819;49.648;8.330;2022-10-23T13:36:50;99815.28;;;18.68;100.00
11525;BME280;5819;49.648;8.330;2022-10-23T13:39:23;99813.69;;;18.56;100.00